Time;durP1;ratioP1;P1;durP2;ratioP2;P2;SDS_P1;SDS_P2;PMS_P1;PMS_P2;Temp;Humidity;BMP_temperature;BMP_pressure;BME280_temperature;BME280_humidity;BME280_pressure;Samples;Min_cycle;Max_cycle;Signal;HPM_P1;HPM_P2
2020/12/25 00:01:08;;;;;;;1.10;1.00;;;;;;;;;;5061690;28;20277;-45
2020/12/25 00:03:34;;;;;;;1.13;1.02;;;;;;;;;;5068371;28;20582;-45
2020/12/25 00:06:00;;;;;;;1.30;1.20;;;;;;;;;;5054234;28;20210;-45
2020/12/25 00:08:25;;;;;;;0.90;0.90;;;;;;;;;;5062688;28;20258;-45
2020/12/25 00:10:55;;;;;;;1.05;1.05;;;;;;;;;;5062981;28;20458;-45
2020/12/25 00:13:21;;;;;;;0.93;0.90;;;;;;;;;;5054767;28;20388;-45
2020/12/25 00:15:47;;;;;;;1.33;1.02;;;;;;;;;;5059834;28;20280;-45
2020/12/25 00:18:13;;;;;;;0.90;0.90;;;;;;;;;;5057262;28;20214;-45
2020/12/25 00:20:39;;;;;;;0.90;0.90;;;;;;;;;;5053714;28;20203;-45
2020/12/25 00:23:05;;;;;;;0.80;0.80;;;;;;;;;;5065047;28;20217;-45
2020/12/25 00:25:31;;;;;;;1.02;0.90;;;;;;;;;;5076274;28;20265;-45
2020/12/25 00:27:57;;;;;;;1.17;1.10;;;;;;;;;;5075617;28;20197;-45
2020/12/25 00:30:23;;;;;;;0.65;0.65;;;;;;;;;;5069219;28;20183;-45
2020/12/25 00:32:49;;;;;;;0.90;0.90;;;;;;;;;;5066750;28;20549;-45
2020/12/25 00:35:15;;;;;;;0.93;0.90;;;;;;;;;;5077965;28;20197;-46
2020/12/25 00:37:40;;;;;;;0.90;0.90;;;;;;;;;;5076365;28;20257;-45
2020/12/25 00:40:06;;;;;;;0.90;0.90;;;;;;;;;;5068645;28;20194;-45
2020/12/25 00:42:32;;;;;;;1.20;1.00;;;;;;;;;;5058622;28;20171;-46
2020/12/25 00:44:58;;;;;;;1.00;1.00;;;;;;;;;;5058392;28;20814;-45
2020/12/25 00:47:24;;;;;;;1.00;0.90;;;;;;;;;;5060475;28;20273;-46
2020/12/25 00:49:50;;;;;;;1.20;1.10;;;;;;;;;;5064469;28;20286;-45
2020/12/25 00:52:16;;;;;;;1.25;0.90;;;;;;;;;;5062344;28;20191;-45
2020/12/25 00:54:42;;;;;;;1.10;1.00;;;;;;;;;;5064880;28;20191;-45
2020/12/25 00:57:08;;;;;;;0.90;0.90;;;;;;;;;;5058225;28;20258;-45
2020/12/25 00:59:37;;;;;;;1.05;0.90;;;;;;;;;;5064399;28;20187;-45
2020/12/25 01:02:03;;;;;;;0.80;0.80;;;;;;;;;;5059412;28;20222;-45
2020/12/25 01:04:29;;;;;;;1.27;1.17;;;;;;;;;;5076640;28;20244;-45
2020/12/25 01:06:55;;;;;;;1.85;1.05;;;;;;;;;;5076734;28;20244;-45
2020/12/25 01:09:24;;;;;;;1.20;1.08;;;;;;;;;;5061136;28;20551;-45
2020/12/25 01:11:50;;;;;;;1.40;1.13;;;;;;;;;;5058020;28;20225;-45
2020/12/25 01:14:16;;;;;;;1.92;1.20;;;;;;;;;;5057312;28;20547;-45
2020/12/25 01:16:42;;;;;;;1.42;1.20;;;;;;;;;;5058423;28;20183;-45
2020/12/25 01:19:08;;;;;;;1.40;1.30;;;;;;;;;;5065718;28;20194;-45
2020/12/25 01:21:34;;;;;;;1.13;1.02;;;;;;;;;;5063762;28;20213;-45
2020/12/25 01:24:00;;;;;;;1.27;0.88;;;;;;;;;;5057528;28;20186;-45
2020/12/25 01:26:26;;;;;;;1.40;1.27;;;;;;;;;;5056843;28;20199;-45
2020/12/25 01:28:54;;;;;;;2.25;1.15;;;;;;;;;;5057681;28;20172;-45
2020/12/25 01:31:20;;;;;;;1.30;1.20;;;;;;;;;;5057529;28;20171;-45
2020/12/25 01:33:46;;;;;;;1.25;1.13;;;;;;;;;;5061618;28;20554;-45
2020/12/25 01:36:12;;;;;;;1.00;0.90;;;;;;;;;;5079145;28;20177;-45
2020/12/25 01:38:38;;;;;;;0.90;0.90;;;;;;;;;;5068118;28;20524;-45
2020/12/25 01:41:04;;;;;;;1.40;1.27;;;;;;;;;;5057462;28;20182;-45
2020/12/25 01:43:30;;;;;;;1.40;1.20;;;;;;;;;;5056916;28;20187;-45
2020/12/25 01:45:56;;;;;;;2.40;0.95;;;;;;;;;;5056715;28;20213;-45
2020/12/25 01:48:22;;;;;;;1.38;1.27;;;;;;;;;;5067678;28;20527;-45
2020/12/25 01:50:51;;;;;;;0.98;0.93;;;;;;;;;;5077476;28;20228;-45
2020/12/25 01:53:18;;;;;;;2.55;0.90;;;;;;;;;;5061555;28;20182;-45
2020/12/25 01:55:44;;;;;;;2.03;1.10;;;;;;;;;;5066496;28;20182;-45
2020/12/25 01:58:10;;;;;;;1.98;1.20;;;;;;;;;;5067118;28;20167;-45
2020/12/25 02:00:36;;;;;;;0.70;0.70;;;;;;;;;;5056794;28;20451;-45
2020/12/25 02:03:02;;;;;;;2.92;1.00;;;;;;;;;;5057289;28;20225;-45
2020/12/25 02:05:28;;;;;;;1.73;1.17;;;;;;;;;;5071350;28;20210;-45
2020/12/25 02:07:56;;;;;;;1.30;0.90;;;;;;;;;;5066528;28;20202;-45
2020/12/25 02:10:23;;;;;;;2.45;1.00;;;;;;;;;;5076590;28;20175;-45
2020/12/25 02:12:49;;;;;;;1.00;0.98;;;;;;;;;;5076102;28;20185;-45
2020/12/25 02:15:15;;;;;;;1.25;0.90;;;;;;;;;;5075666;28;20174;-45
2020/12/25 02:17:45;;;;;;;1.58;0.90;;;;;;;;;;5076118;28;20182;-46
2020/12/25 02:20:11;;;;;;;1.02;1.00;;;;;;;;;;5057060;28;20190;-45
2020/12/25 02:22:38;;;;;;;0.80;0.80;;;;;;;;;;5056350;28;20183;-45
2020/12/25 02:25:04;;;;;;;1.23;0.75;;;;;;;;;;5055959;28;20179;-45
2020/12/25 02:27:30;;;;;;;3.22;0.98;;;;;;;;;;5056106;28;20207;-45
2020/12/25 02:29:56;;;;;;;1.10;1.00;;;;;;;;;;5062171;28;20167;-45
2020/12/25 02:32:22;;;;;;;0.70;0.70;;;;;;;;;;5067826;28;20287;-45
2020/12/25 02:34:48;;;;;;;0.60;0.60;;;;;;;;;;5056034;28;20191;-45
2020/12/25 02:37:14;;;;;;;1.23;0.90;;;;;;;;;;5056306;28;20190;-45
2020/12/25 02:39:40;;;;;;;1.02;0.93;;;;;;;;;;5059112;28;20699;-45
2020/12/25 02:42:10;;;;;;;0.80;0.70;;;;;;;;;;5071558;28;20305;-45
2020/12/25 02:44:36;;;;;;;0.90;0.90;;;;;;;;;;5055247;28;20249;-45
2020/12/25 02:47:02;;;;;;;0.80;0.80;;;;;;;;;;5070741;28;20581;-45
2020/12/25 02:49:28;;;;;;;0.70;0.70;;;;;;;;;;5055737;28;20203;-45
2020/12/25 02:51:54;;;;;;;1.10;0.80;;;;;;;;;;5056210;28;20182;-45
2020/12/25 02:54:20;;;;;;;0.70;0.70;;;;;;;;;;5055495;28;20179;-45
2020/12/25 02:56:46;;;;;;;0.88;0.85;;;;;;;;;;5055747;28;20179;-45
2020/12/25 02:59:12;;;;;;;0.85;0.85;;;;;;;;;;5058177;28;20220;-45
2020/12/25 03:01:38;;;;;;;0.70;0.70;;;;;;;;;;5056410;28;20211;-45
2020/12/25 03:04:04;;;;;;;2.15;0.88;;;;;;;;;;5055353;28;20175;-45
2020/12/25 03:06:30;;;;;;;1.95;0.80;;;;;;;;;;5055160;28;20573;-45
2020/12/25 03:08:56;;;;;;;1.83;0.80;;;;;;;;;;5055565;28;20182;-45
2020/12/25 03:11:21;;;;;;;0.70;0.70;;;;;;;;;;5071580;28;20461;-45
2020/12/25 03:13:47;;;;;;;0.60;0.60;;;;;;;;;;5064975;28;20179;-45
2020/12/25 03:16:13;;;;;;;0.65;0.65;;;;;;;;;;5066912;28;20235;-45
2020/12/25 03:18:39;;;;;;;0.75;0.75;;;;;;;;;;5075458;28;20183;-45
2020/12/25 03:21:05;;;;;;;0.75;0.70;;;;;;;;;;5061408;28;20183;-45
2020/12/25 03:23:31;;;;;;;0.73;0.73;;;;;;;;;;5055040;28;20315;-45
2020/12/25 03:25:57;;;;;;;1.20;0.80;;;;;;;;;;5055082;28;20206;-45
2020/12/25 03:28:23;;;;;;;0.80;0.80;;;;;;;;;;5056804;28;20179;-45
2020/12/25 03:30:49;;;;;;;0.70;0.70;;;;;;;;;;5063872;28;20466;-45
2020/12/25 03:33:15;;;;;;;1.13;0.90;;;;;;;;;;5055440;28;20167;-45
2020/12/25 03:35:41;;;;;;;0.93;0.70;;;;;;;;;;5054557;28;20186;-45
2020/12/25 03:38:07;;;;;;;0.60;0.60;;;;;;;;;;5055013;28;20171;-45
2020/12/25 03:40:34;;;;;;;0.70;0.70;;;;;;;;;;5060143;28;20574;-45
2020/12/25 03:43:00;;;;;;;0.73;0.73;;;;;;;;;;5055177;28;20316;-45
2020/12/25 03:45:27;;;;;;;0.70;0.70;;;;;;;;;;5054626;28;20175;-45
2020/12/25 03:47:53;;;;;;;0.88;0.80;;;;;;;;;;5062838;28;20293;-45
2020/12/25 03:50:18;;;;;;;0.50;0.50;;;;;;;;;;5074589;28;20308;-45
2020/12/25 03:52:44;;;;;;;0.60;0.60;;;;;;;;;;5074660;28;20190;-45
2020/12/25 03:55:10;;;;;;;0.70;0.70;;;;;;;;;;5063338;28;20285;-45
2020/12/25 03:57:36;;;;;;;0.60;0.60;;;;;;;;;;5055944;28;20179;-45
2020/12/25 04:00:03;;;;;;;0.77;0.77;;;;;;;;;;5063825;28;20202;-45
2020/12/25 04:02:29;;;;;;;0.60;0.60;;;;;;;;;;5078919;28;20210;-45
2020/12/25 04:04:55;;;;;;;0.60;0.60;;;;;;;;;;5078828;28;20174;-45
2020/12/25 04:07:21;;;;;;;0.70;0.70;;;;;;;;;;5078732;28;20294;-45
2020/12/25 04:09:47;;;;;;;0.63;0.60;;;;;;;;;;5062258;28;20179;-45
2020/12/25 04:12:13;;;;;;;1.00;0.60;;;;;;;;;;5066096;28;20183;-45
2020/12/25 04:14:39;;;;;;;0.95;0.95;;;;;;;;;;5058299;28;20261;-45
2020/12/25 04:17:05;;;;;;;0.68;0.60;;;;;;;;;;5058981;28;20175;-45
2020/12/25 04:19:32;;;;;;;1.30;0.70;;;;;;;;;;5058799;28;20214;-45
2020/12/25 04:21:58;;;;;;;0.70;0.70;;;;;;;;;;5060139;28;20207;-45
2020/12/25 04:24:24;;;;;;;0.60;0.60;;;;;;;;;;5058049;28;20215;-45
2020/12/25 04:26:50;;;;;;;0.60;0.60;;;;;;;;;;5078125;28;20256;-45
2020/12/25 04:29:16;;;;;;;0.95;0.50;;;;;;;;;;5078794;28;20175;-45
2020/12/25 04:31:42;;;;;;;0.68;0.68;;;;;;;;;;5061101;28;20182;-45
2020/12/25 04:34:08;;;;;;;0.60;0.60;;;;;;;;;;5058440;28;20179;-45
2020/12/25 04:36:34;;;;;;;0.60;0.60;;;;;;;;;;5069489;28;20194;-45
2020/12/25 04:39:00;;;;;;;0.82;0.82;;;;;;;;;;5078613;28;20186;-45
2020/12/25 04:41:26;;;;;;;0.68;0.68;;;;;;;;;;5063490;28;20179;-45
2020/12/25 04:43:52;;;;;;;0.65;0.65;;;;;;;;;;5058673;28;20455;-45
2020/12/25 04:46:18;;;;;;;0.60;0.60;;;;;;;;;;5057899;28;20566;-45
2020/12/25 04:48:45;;;;;;;0.50;0.50;;;;;;;;;;5072804;28;20575;-45
2020/12/25 04:51:11;;;;;;;0.60;0.60;;;;;;;;;;5071109;28;20223;-45
2020/12/25 04:53:38;;;;;;;0.57;0.57;;;;;;;;;;5063280;28;20266;-45
2020/12/25 04:56:04;;;;;;;0.70;0.70;;;;;;;;;;5057989;28;20294;-45
2020/12/25 04:58:30;;;;;;;0.40;0.40;;;;;;;;;;5058114;28;20262;-45
2020/12/25 05:01:05;;;;;;;0.52;0.52;;;;;;;;;;5067734;28;20202;-45
2020/12/25 05:03:35;;;;;;;0.50;0.50;;;;;;;;;;5067484;28;20201;-45
2020/12/25 05:06:08;;;;;;;0.68;0.55;;;;;;;;;;5057498;28;20205;-45
2020/12/25 05:08:41;;;;;;;0.57;0.57;;;;;;;;;;5057544;28;20182;-45
2020/12/25 05:11:07;;;;;;;0.40;0.40;;;;;;;;;;5069594;28;20180;-45
2020/12/25 05:13:34;;;;;;;0.60;0.47;;;;;;;;;;5057726;28;20250;-45
2020/12/25 05:16:00;;;;;;;0.40;0.40;;;;;;;;;;5057154;28;20171;-45
2020/12/25 05:18:31;;;;;;;0.40;0.40;;;;;;;;;;5063851;28;20197;-45
2020/12/25 05:20:58;;;;;;;0.63;0.63;;;;;;;;;;5075656;28;20186;-45
2020/12/25 05:23:32;;;;;;;0.40;0.40;;;;;;;;;;5076763;28;20525;-45
2020/12/25 05:25:59;;;;;;;0.60;0.60;;;;;;;;;;5077331;28;20183;-45
2020/12/25 05:28:26;;;;;;;0.70;0.65;;;;;;;;;;5077095;28;20171;-45
2020/12/25 05:30:52;;;;;;;0.40;0.40;;;;;;;;;;5073387;28;20191;-45
2020/12/25 05:33:18;;;;;;;1.00;0.50;;;;;;;;;;5077502;28;20201;-45
2020/12/25 05:35:46;;;;;;;0.60;0.60;;;;;;;;;;5076603;28;20507;-45
2020/12/25 05:38:12;;;;;;;0.38;0.38;;;;;;;;;;5076859;28;20352;-45
2020/12/25 05:40:42;;;;;;;0.40;0.40;;;;;;;;;;5066702;28;20586;-45
2020/12/25 05:43:08;;;;;;;0.60;0.60;;;;;;;;;;5057135;28;20725;-45
2020/12/25 05:45:39;;;;;;;0.60;0.55;;;;;;;;;;5057850;28;20187;-45
2020/12/25 05:48:06;;;;;;;2.47;0.50;;;;;;;;;;5060228;28;20187;-45
2020/12/25 05:50:32;;;;;;;0.98;0.40;;;;;;;;;;5066081;28;20273;-45
2020/12/25 05:52:58;;;;;;;1.38;0.60;;;;;;;;;;5076639;28;20190;-45
2020/12/25 05:55:24;;;;;;;1.45;0.68;;;;;;;;;;5076110;28;20573;-45
2020/12/25 05:57:51;;;;;;;0.50;0.50;;;;;;;;;;5072270;28;20180;-45
2020/12/25 06:00:18;;;;;;;1.95;0.50;;;;;;;;;;5063817;28;20170;-45
2020/12/25 06:02:47;;;;;;;1.73;0.35;;;;;;;;;;5076746;28;20273;-45
2020/12/25 06:05:14;;;;;;;2.88;0.57;;;;;;;;;;5075568;28;20178;-45
2020/12/25 06:07:48;;;;;;;1.10;0.63;;;;;;;;;;5076490;28;20201;-45
2020/12/25 06:10:16;;;;;;;3.85;0.60;;;;;;;;;;5066618;28;20606;-45
2020/12/25 06:12:42;;;;;;;1.80;0.40;;;;;;;;;;5070023;28;20191;-45
2020/12/25 06:15:12;;;;;;;0.40;0.40;;;;;;;;;;5076314;28;20174;-45
2020/12/25 06:17:41;;;;;;;0.90;0.50;;;;;;;;;;5076465;28;20505;-45
2020/12/25 06:20:08;;;;;;;0.65;0.47;;;;;;;;;;5066569;28;20477;-45
2020/12/25 06:22:38;;;;;;;2.60;0.50;;;;;;;;;;5056167;28;20179;-45
2020/12/25 06:25:08;;;;;;;0.50;0.50;;;;;;;;;;5058412;28;20261;-45
2020/12/25 06:27:34;;;;;;;0.40;0.40;;;;;;;;;;5076194;28;20217;-45
2020/12/25 06:30:01;;;;;;;0.45;0.40;;;;;;;;;;5069244;28;20245;-45
2020/12/25 06:32:28;;;;;;;3.83;0.57;;;;;;;;;;5056343;28;20175;-45
2020/12/25 06:34:56;;;;;;;0.82;0.32;;;;;;;;;;5066117;28;20210;-45
2020/12/25 06:37:27;;;;;;;0.55;0.40;;;;;;;;;;5068861;28;20214;-45
2020/12/25 06:40:05;;;;;;;1.65;0.38;;;;;;;;;;5064874;28;20187;-45
2020/12/25 06:42:38;;;;;;;0.40;0.40;;;;;;;;;;5065297;28;20218;-45
2020/12/25 06:45:05;;;;;;;2.40;0.50;;;;;;;;;;5074641;28;20182;-45
2020/12/25 06:47:35;;;;;;;0.40;0.40;;;;;;;;;;5070727;28;20202;-45
2020/12/25 06:50:27;;;;;;;0.60;0.40;;;;;;;;;;5054889;28;20175;-45
2020/12/25 06:52:57;;;;;;;1.33;0.47;;;;;;;;;;5058608;28;20199;-45
2020/12/25 06:55:24;;;;;;;0.82;0.40;;;;;;;;;;5068209;28;20175;-45
2020/12/25 06:57:52;;;;;;;3.60;0.60;;;;;;;;;;5065974;28;20218;-45
2020/12/25 07:00:20;;;;;;;2.70;0.50;;;;;;;;;;5057015;28;20274;-45
2020/12/25 07:02:45;;;;;;;0.55;0.40;;;;;;;;;;5066538;28;20206;-41
2020/12/25 07:05:12;;;;;;;7.78;4.97;;;;;;;;;;5059647;28;20197;-45
2020/12/25 07:07:38;;;;;;;339.65;237.93;;;;;;;;;;5055321;28;20246;-45
2020/12/25 07:10:12;;;;;;;338.95;242.70;;;;;;;;;;5055908;28;20171;-45
2020/12/25 07:12:38;;;;;;;301.83;204.65;;;;;;;;;;5055205;28;20179;-45
2020/12/25 07:15:05;;;;;;;470.67;308.52;;;;;;;;;;5054890;28;20179;-45
2020/12/25 07:17:31;;;;;;;1253.97;676.63;;;;;;;;;;5074354;28;20431;-45
2020/12/25 07:19:57;;;;;;;821.83;522.60;;;;;;;;;;5074210;28;20656;-45
2020/12/25 07:22:23;;;;;;;657.88;404.65;;;;;;;;;;5055231;28;20286;-44
2020/12/25 07:24:50;;;;;;;570.95;336.17;;;;;;;;;;5055000;28;20440;-44
2020/12/25 07:27:16;;;;;;;514.50;299.83;;;;;;;;;;5055335;28;20237;-44
2020/12/25 07:29:43;;;;;;;471.45;269.45;;;;;;;;;;5055012;28;20197;-44
2020/12/25 07:32:09;;;;;;;457.15;253.60;;;;;;;;;;5053601;28;20236;-44
2020/12/25 07:34:36;;;;;;;426.02;227.80;;;;;;;;;;5052015;28;20554;-44
2020/12/25 07:37:02;;;;;;;386.30;197.68;;;;;;;;;;5052931;28;20282;-44
2020/12/25 07:39:29;;;;;;;346.88;168.40;;;;;;;;;;5058908;28;20229;-44
2020/12/25 07:41:55;;;;;;;301.25;150.32;;;;;;;;;;5072654;28;20207;-45
2020/12/25 07:44:22;;;;;;;252.85;130.98;;;;;;;;;;5073288;28;20182;-45
2020/12/25 07:46:49;;;;;;;233.93;117.97;;;;;;;;;;5072645;28;20206;-45
2020/12/25 07:49:15;;;;;;;218.88;109.70;;;;;;;;;;5055225;28;20208;-44
2020/12/25 07:51:41;;;;;;;194.23;101.68;;;;;;;;;;5060394;28;20192;-47
2020/12/25 07:54:08;;;;;;;180.73;91.85;;;;;;;;;;5073607;28;20206;-48
2020/12/25 07:56:35;;;;;;;175.90;86.93;;;;;;;;;;5070194;28;20186;-47
2020/12/25 07:59:02;;;;;;;151.68;79.30;;;;;;;;;;5073936;28;20187;-49
2020/12/25 08:01:29;;;;;;;145.55;75.00;;;;;;;;;;5067149;28;20561;-48
2020/12/25 08:03:59;;;;;;;135.45;69.85;;;;;;;;;;5060872;28;20265;-49
2020/12/25 08:06:26;;;;;;;132.57;65.30;;;;;;;;;;5053289;28;20225;-50
2020/12/25 08:08:53;;;;;;;115.18;60.00;;;;;;;;;;5073121;28;20426;-47
2020/12/25 08:11:20;;;;;;;107.65;54.92;;;;;;;;;;5072842;28;20224;-47
2020/12/25 08:13:50;;;;;;;98.18;51.90;;;;;;;;;;5074120;28;20181;-47
2020/12/25 08:16:16;;;;;;;95.53;48.55;;;;;;;;;;5073490;28;20180;-46
2020/12/25 08:18:42;;;;;;;87.68;47.55;;;;;;;;;;5056125;28;20852;-47
2020/12/25 08:21:08;;;;;;;75.68;43.55;;;;;;;;;;5061560;28;20584;-48
2020/12/25 08:23:35;;;;;;;75.22;42.45;;;;;;;;;;5057566;28;20206;-47
2020/12/25 08:26:03;;;;;;;68.38;39.00;;;;;;;;;;5054475;28;20262;-47
2020/12/25 08:28:32;;;;;;;61.25;37.88;;;;;;;;;;5053413;28;20554;-46
2020/12/25 08:30:59;;;;;;;58.97;35.67;;;;;;;;;;5053577;28;20179;-46
2020/12/25 08:33:26;;;;;;;56.08;32.22;;;;;;;;;;5054110;28;20527;-45
2020/12/25 08:35:52;;;;;;;50.20;30.40;;;;;;;;;;5052354;28;20270;-45
2020/12/25 08:38:18;;;;;;;45.40;27.88;;;;;;;;;;5066603;28;20191;-47
2020/12/25 08:40:48;;;;;;;44.67;27.52;;;;;;;;;;5058658;28;20629;-46
2020/12/25 08:43:18;;;;;;;40.22;23.25;;;;;;;;;;5066980;28;20578;-45
2020/12/25 08:45:54;;;;;;;46.80;23.75;;;;;;;;;;5056384;28;20175;-47
2020/12/25 08:48:21;;;;;;;38.15;22.08;;;;;;;;;;5059254;28;20198;-45
2020/12/25 08:50:47;;;;;;;38.03;21.30;;;;;;;;;;5067831;28;20179;-45
2020/12/25 08:53:18;;;;;;;31.63;20.33;;;;;;;;;;5057099;28;20450;-45
2020/12/25 08:55:44;;;;;;;31.92;19.50;;;;;;;;;;5069448;28;20817;-45
2020/12/25 08:58:11;;;;;;;33.78;17.98;;;;;;;;;;5077074;28;20186;-46
2020/12/25 09:00:37;;;;;;;27.83;17.17;;;;;;;;;;5073955;28;20206;-47
2020/12/25 09:03:03;;;;;;;32.83;18.45;;;;;;;;;;5072832;28;20202;-46
2020/12/25 09:05:29;;;;;;;31.13;16.52;;;;;;;;;;5055423;28;20204;-45
2020/12/25 09:07:55;;;;;;;25.98;15.70;;;;;;;;;;5072686;28;20216;-45
2020/12/25 09:10:21;;;;;;;28.92;15.88;;;;;;;;;;5070437;28;20191;-46
2020/12/25 09:12:47;;;;;;;23.60;14.30;;;;;;;;;;5065388;28;20309;-46
2020/12/25 09:15:13;;;;;;;24.15;13.93;;;;;;;;;;5056013;28;20753;-45
2020/12/25 09:17:39;;;;;;;21.38;13.48;;;;;;;;;;5069990;28;20190;-44
2020/12/25 09:20:05;;;;;;;21.90;12.82;;;;;;;;;;5067441;28;20183;-45
2020/12/25 09:22:31;;;;;;;19.10;12.93;;;;;;;;;;5056184;28;20577;-46
2020/12/25 09:24:57;;;;;;;17.70;11.75;;;;;;;;;;5056292;28;20183;-45
2020/12/25 09:27:23;;;;;;;18.65;12.05;;;;;;;;;;5055942;28;20245;-45
2020/12/25 09:29:49;;;;;;;19.13;11.77;;;;;;;;;;5056620;28;20211;-45
2020/12/25 09:32:15;;;;;;;27.45;14.80;;;;;;;;;;5075548;28;20175;-44
2020/12/25 09:34:41;;;;;;;28.90;15.93;;;;;;;;;;5058278;28;20574;-45
2020/12/25 09:37:07;;;;;;;38.05;18.80;;;;;;;;;;5064098;28;20209;-44
2020/12/25 09:39:33;;;;;;;38.08;18.50;;;;;;;;;;5075975;28;20178;-44
2020/12/25 09:41:59;;;;;;;41.38;21.90;;;;;;;;;;5076249;28;20186;-45
2020/12/25 09:44:25;;;;;;;44.47;21.35;;;;;;;;;;5074961;28;20281;-45
2020/12/25 09:46:51;;;;;;;42.33;21.83;;;;;;;;;;5075803;28;20226;-44
2020/12/25 09:49:17;;;;;;;62.50;29.42;;;;;;;;;;5074125;28;20553;-45
2020/12/25 09:51:43;;;;;;;53.78;24.70;;;;;;;;;;5071643;28;20605;-45
2020/12/25 09:54:09;;;;;;;72.50;31.08;;;;;;;;;;5056608;28;20222;-44
2020/12/25 09:56:35;;;;;;;96.43;44.63;;;;;;;;;;5062101;28;20206;-46
2020/12/25 09:59:01;;;;;;;65.38;31.42;;;;;;;;;;5059527;28;20440;-45
2020/12/25 10:01:27;;;;;;;64.55;31.85;;;;;;;;;;5055128;28;20271;-45
2020/12/25 10:03:53;;;;;;;55.55;27.48;;;;;;;;;;5055924;28;20270;-45
2020/12/25 10:06:20;;;;;;;46.58;24.75;;;;;;;;;;5058962;28;20210;-45
2020/12/25 10:08:46;;;;;;;48.20;23.45;;;;;;;;;;5070473;28;20221;-45
2020/12/25 10:11:12;;;;;;;43.97;21.63;;;;;;;;;;5066107;28;20225;-46
2020/12/25 10:13:38;;;;;;;40.40;20.92;;;;;;;;;;5075591;28;20599;-46
2020/12/25 10:16:04;;;;;;;36.83;19.75;;;;;;;;;;5073132;28;20656;-48
2020/12/25 10:18:30;;;;;;;37.33;18.67;;;;;;;;;;5074612;28;20206;-47
2020/12/25 10:20:56;;;;;;;34.00;16.83;;;;;;;;;;5075154;28;20189;-48
2020/12/25 10:23:22;;;;;;;33.42;17.52;;;;;;;;;;5072421;28;20186;-47
2020/12/25 10:25:48;;;;;;;28.73;16.02;;;;;;;;;;5073261;28;20226;-47
2020/12/25 10:28:15;;;;;;;33.47;16.10;;;;;;;;;;5075144;28;20194;-47
2020/12/25 10:30:41;;;;;;;27.13;14.43;;;;;;;;;;5066295;28;20186;-47
2020/12/25 10:33:07;;;;;;;25.70;13.63;;;;;;;;;;5065893;28;20618;-47
2020/12/25 10:35:33;;;;;;;26.63;13.95;;;;;;;;;;5073422;28;20195;-47
2020/12/25 10:37:59;;;;;;;24.00;11.98;;;;;;;;;;5064186;28;20621;-46
2020/12/25 10:40:25;;;;;;;22.05;11.32;;;;;;;;;;5058644;28;20206;-46
2020/12/25 10:42:50;;;;;;;19.77;10.60;;;;;;;;;;5062428;28;20183;-47
2020/12/25 10:45:16;;;;;;;19.30;10.27;;;;;;;;;;5057819;28;20190;-47
2020/12/25 10:47:42;;;;;;;23.63;12.20;;;;;;;;;;5067080;28;20202;-47
2020/12/25 10:50:08;;;;;;;23.92;12.48;;;;;;;;;;5074993;28;20687;-47
2020/12/25 10:52:34;;;;;;;20.60;11.98;;;;;;;;;;5055118;28;20290;-47
2020/12/25 10:55:00;;;;;;;23.73;11.98;;;;;;;;;;5054255;28;20167;-46
2020/12/25 10:57:26;;;;;;;23.02;11.90;;;;;;;;;;5068312;28;20194;-48
2020/12/25 10:59:52;;;;;;;25.65;11.38;;;;;;;;;;5074238;28;20186;-46
2020/12/25 11:02:18;;;;;;;19.67;9.15;;;;;;;;;;5073776;28;20194;-46
2020/12/25 11:04:44;;;;;;;10.73;5.28;;;;;;;;;;5064208;28;20610;-47
2020/12/25 11:07:10;;;;;;;10.75;5.55;;;;;;;;;;5070757;28;20233;-47
2020/12/25 11:09:36;;;;;;;10.27;5.53;;;;;;;;;;5070883;28;20167;-47
2020/12/25 11:12:02;;;;;;;6.32;4.10;;;;;;;;;;5055370;28;20555;-47
2020/12/25 11:14:28;;;;;;;10.80;5.20;;;;;;;;;;5073832;28;20174;-45
2020/12/25 11:16:56;;;;;;;14.80;7.10;;;;;;;;;;5075235;28;20177;-46
2020/12/25 11:19:22;;;;;;;13.23;6.50;;;;;;;;;;5094284;28;20177;-46
2020/12/25 11:21:48;;;;;;;11.43;5.85;;;;;;;;;;5094601;28;20256;-46
2020/12/25 11:24:14;;;;;;;12.05;6.00;;;;;;;;;;5085341;28;20277;-47
2020/12/25 11:26:40;;;;;;;8.95;5.65;;;;;;;;;;5073762;28;20973;-47
2020/12/25 11:29:07;;;;;;;10.38;5.68;;;;;;;;;;5071234;28;20179;-47
2020/12/25 11:31:34;;;;;;;10.98;5.63;;;;;;;;;;5053997;28;20175;-46
2020/12/25 11:34:00;;;;;;;10.23;5.72;;;;;;;;;;5060608;28;20179;-47
2020/12/25 11:36:27;;;;;;;8.93;5.15;;;;;;;;;;5073326;28;20190;-46
2020/12/25 11:38:53;;;;;;;10.25;5.63;;;;;;;;;;5063604;28;20435;-46
2020/12/25 11:41:21;;;;;;;10.75;5.47;;;;;;;;;;5053872;28;20320;-47
2020/12/25 11:43:47;;;;;;;21.15;10.70;;;;;;;;;;5071759;28;20242;-47
2020/12/25 11:46:15;;;;;;;35.33;17.95;;;;;;;;;;5064551;28;20171;-47
2020/12/25 11:48:41;;;;;;;33.42;17.30;;;;;;;;;;5053717;28;20175;-47
2020/12/25 11:51:07;;;;;;;38.92;20.13;;;;;;;;;;5064184;28;20187;-47
2020/12/25 11:53:37;;;;;;;37.13;19.60;;;;;;;;;;5069246;28;20209;-47
2020/12/25 11:56:02;;;;;;;40.03;19.58;;;;;;;;;;5072148;28;20197;-47
2020/12/25 11:58:28;;;;;;;42.78;20.33;;;;;;;;;;5073636;28;20190;-47
2020/12/25 12:00:55;;;;;;;37.28;19.65;;;;;;;;;;5064431;28;20198;-47
2020/12/25 12:03:23;;;;;;;34.08;19.10;;;;;;;;;;5061437;28;20202;-47
2020/12/25 12:05:49;;;;;;;41.38;19.40;;;;;;;;;;5059509;28;20257;-47
2020/12/25 12:08:15;;;;;;;34.65;18.85;;;;;;;;;;5073680;28;20328;-47
2020/12/25 12:10:41;;;;;;;35.85;18.75;;;;;;;;;;5073415;28;20253;-47
2020/12/25 12:13:07;;;;;;;35.22;18.15;;;;;;;;;;5073774;28;20178;-47
2020/12/25 12:15:36;;;;;;;32.78;17.77;;;;;;;;;;5072910;28;20249;-47
2020/12/25 12:18:02;;;;;;;35.28;17.25;;;;;;;;;;5074033;28;20206;-47
2020/12/25 12:20:28;;;;;;;32.83;17.55;;;;;;;;;;5063741;28;20664;-47
2020/12/25 12:22:54;;;;;;;34.22;17.33;;;;;;;;;;5058068;28;20174;-47
2020/12/25 12:25:20;;;;;;;28.83;15.82;;;;;;;;;;5056829;28;20577;-47
2020/12/25 12:27:46;;;;;;;30.83;15.05;;;;;;;;;;5057533;28;20218;-47
2020/12/25 12:30:12;;;;;;;25.48;14.52;;;;;;;;;;5057771;28;20650;-47
2020/12/25 12:32:39;;;;;;;27.73;15.23;;;;;;;;;;5056715;28;20183;-47
2020/12/25 12:35:05;;;;;;;23.88;14.52;;;;;;;;;;5058068;28;20182;-47
2020/12/25 12:37:31;;;;;;;26.13;13.73;;;;;;;;;;5068561;28;20202;-47
2020/12/25 12:39:57;;;;;;;25.25;13.77;;;;;;;;;;5059683;28;20245;-47
2020/12/25 12:42:23;;;;;;;28.92;13.73;;;;;;;;;;5057368;28;20183;-47
2020/12/25 12:44:50;;;;;;;23.13;12.68;;;;;;;;;;5057080;28;20191;-47
2020/12/25 12:47:16;;;;;;;24.52;12.23;;;;;;;;;;5057263;28;20476;-47
2020/12/25 12:49:42;;;;;;;18.58;11.02;;;;;;;;;;5065007;28;20179;-47
2020/12/25 12:52:08;;;;;;;18.67;10.32;;;;;;;;;;5073338;28;20191;-47
2020/12/25 12:54:37;;;;;;;19.60;9.90;;;;;;;;;;5070537;28;20182;-47
2020/12/25 12:57:04;;;;;;;17.60;9.35;;;;;;;;;;5076781;28;20178;-47
2020/12/25 12:59:30;;;;;;;15.63;9.15;;;;;;;;;;5067883;28;20202;-47
2020/12/25 13:01:57;;;;;;;14.35;8.85;;;;;;;;;;5067450;28;20278;-48
2020/12/25 13:04:23;;;;;;;12.35;7.78;;;;;;;;;;5072080;28;20201;-48
2020/12/25 13:06:49;;;;;;;17.10;8.18;;;;;;;;;;5058067;28;20207;-49
2020/12/25 13:09:16;;;;;;;13.95;6.85;;;;;;;;;;5064132;28;20625;-49
2020/12/25 13:11:42;;;;;;;13.93;6.95;;;;;;;;;;5056448;28;20182;-49
2020/12/25 13:14:08;;;;;;;16.08;6.65;;;;;;;;;;5056467;28;20249;-49
2020/12/25 13:16:34;;;;;;;9.00;5.72;;;;;;;;;;5056366;28;20175;-49
2020/12/25 13:19:00;;;;;;;12.80;6.05;;;;;;;;;;5058148;28;20236;-46
2020/12/25 13:21:28;;;;;;;12.85;6.25;;;;;;;;;;5066208;28;20236;-47
2020/12/25 13:23:54;;;;;;;15.52;6.10;;;;;;;;;;5076035;28;20182;-47
2020/12/25 13:26:21;;;;;;;8.88;5.40;;;;;;;;;;5072586;28;20214;-46
2020/12/25 13:28:47;;;;;;;10.15;5.03;;;;;;;;;;5059158;28;20214;-46
2020/12/25 13:31:17;;;;;;;10.95;5.05;;;;;;;;;;5056073;28;20250;-47
2020/12/25 13:33:43;;;;;;;8.32;4.63;;;;;;;;;;5056033;28;20605;-48
2020/12/25 13:36:10;;;;;;;8.43;4.20;;;;;;;;;;5056510;28;20435;-47
2020/12/25 13:38:36;;;;;;;8.70;4.47;;;;;;;;;;5068224;28;20183;-47
2020/12/25 13:41:28;;;;;;;9.35;4.97;;;;;;;;;;5057918;28;20439;-47
2020/12/25 13:43:54;;;;;;;16.27;8.10;;;;;;;;;;5062813;28;20459;-47
2020/12/25 13:46:21;;;;;;;51.35;29.65;;;;;;;;;;5068981;28;20220;-47
2020/12/25 13:48:47;;;;;;;328.33;243.13;;;;;;;;;;5072724;28;20243;-46
2020/12/25 13:51:14;;;;;;;266.20;204.80;;;;;;;;;;5056087;28;20194;-48
2020/12/25 13:53:40;;;;;;;102.43;71.95;;;;;;;;;;5055619;28;20183;-49
2020/12/25 13:56:06;;;;;;;328.08;212.30;;;;;;;;;;5073569;28;20244;-48
2020/12/25 13:58:32;;;;;;;1030.15;621.47;;;;;;;;;;5070314;28;20178;-48
2020/12/25 14:00:58;;;;;;;492.50;311.35;;;;;;;;;;5057273;28;20187;-50
2020/12/25 14:03:24;;;;;;;402.23;214.10;;;;;;;;;;5055424;28;20269;-49
2020/12/25 14:05:50;;;;;;;326.33;170.90;;;;;;;;;;5055458;28;20254;-47
2020/12/25 14:08:16;;;;;;;270.92;138.57;;;;;;;;;;5055624;28;20574;-45
2020/12/25 14:10:42;;;;;;;206.65;105.85;;;;;;;;;;5055338;28;20251;-49
2020/12/25 14:13:08;;;;;;;198.40;100.95;;;;;;;;;;5065502;28;20462;-46
2020/12/25 14:15:34;;;;;;;172.88;89.88;;;;;;;;;;5056266;28;20183;-48
2020/12/25 14:18:00;;;;;;;155.98;80.72;;;;;;;;;;5056450;28;20194;-48
2020/12/25 14:20:26;;;;;;;142.00;71.55;;;;;;;;;;5054867;28;20205;-46
2020/12/25 14:22:52;;;;;;;123.10;64.38;;;;;;;;;;5055275;28;20213;-48
2020/12/25 14:25:18;;;;;;;117.75;61.25;;;;;;;;;;5054899;28;20447;-48